Time;durP1;ratioP1;P1;durP2;ratioP2;P2;SDS_P1;SDS_P2;PMS_P1;PMS_P2;Temp;Humidity;BMP_temperature;BMP_pressure;BME280_temperature;BME280_humidity;BME280_pressure;Samples;Min_cycle;Max_cycle;Signal;HPM_P1;HPM_P2
2023/05/16 00:01:34;;;;;;;15.98;11.25;;;11.50;99.90;;;;;;5013459;28;20450;-43
2023/05/16 00:04:02;;;;;;;19.17;11.52;;;11.50;99.90;;;;;;5012242;28;20050;-44
2023/05/16 00:06:30;;;;;;;12.05;10.75;;;11.50;99.90;;;;;;5023547;28;20053;-44
2023/05/16 00:08:59;;;;;;;12.07;10.65;;;11.50;99.90;;;;;;5016302;28;20050;-42
2023/05/16 00:11:26;;;;;;;14.07;11.10;;;11.60;99.90;;;;;;5024625;28;20061;-44
2023/05/16 00:13:53;;;;;;;13.35;11.00;;;11.60;99.90;;;;;;5023351;28;20064;-43
2023/05/16 00:16:21;;;;;;;13.88;11.75;;;11.50;99.90;;;;;;5020654;28;20134;-42
2023/05/16 00:18:49;;;;;;;15.48;11.85;;;11.50;99.90;;;;;;5013222;28;20137;-42
2023/05/16 00:21:16;;;;;;;13.82;11.75;;;11.60;99.90;;;;;;5021478;28;20054;-41
2023/05/16 00:23:43;;;;;;;13.95;10.77;;;11.60;99.90;;;;;;5024469;28;20055;-40
2023/05/16 00:26:10;;;;;;;13.07;10.82;;;11.60;99.90;;;;;;5017546;28;20050;-42
2023/05/16 00:28:41;;;;;;;14.55;11.38;;;11.60;99.90;;;;;;5017495;28;20050;-43
2023/05/16 00:31:08;;;;;;;15.32;11.90;;;11.60;99.90;;;;;;5013065;28;20418;-42
2023/05/16 00:33:35;;;;;;;18.33;12.40;;;11.60;99.90;;;;;;5013082;28;20495;-41
2023/05/16 00:36:03;;;;;;;14.68;11.32;;;11.60;99.90;;;;;;5011816;28;20109;-42
2023/05/16 00:38:30;;;;;;;12.48;11.18;;;11.60;99.90;;;;;;5012900;28;20042;-42
2023/05/16 00:40:59;;;;;;;15.38;12.25;;;11.50;99.90;;;;;;5010380;28;20064;-43
2023/05/16 00:43:26;;;;;;;12.00;10.32;;;11.50;99.90;;;;;;5016264;28;20038;-42
2023/05/16 00:45:56;;;;;;;13.68;11.70;;;11.40;99.90;;;;;;5020132;28;20046;-42
2023/05/16 00:48:24;;;;;;;14.68;11.95;;;11.40;99.90;;;;;;5018368;28;20053;-42
2023/05/16 00:50:52;;;;;;;13.93;11.80;;;11.40;99.90;;;;;;5018101;28;20054;-42
2023/05/16 00:53:23;;;;;;;15.23;12.10;;;11.40;99.90;;;;;;5012430;28;20042;-42
2023/05/16 00:55:51;;;;;;;15.27;12.10;;;11.40;99.90;;;;;;5011338;28;20071;-44
2023/05/16 00:58:20;;;;;;;15.95;12.38;;;11.30;99.90;;;;;;5008159;28;20045;-44
2023/05/16 01:00:47;;;;;;;14.55;12.40;;;11.30;99.90;;;;;;5009419;28;20137;-43
2023/05/16 01:03:15;;;;;;;16.33;12.57;;;11.30;99.90;;;;;;5013385;28;20045;-44
2023/05/16 01:05:42;;;;;;;15.32;12.18;;;11.20;99.90;;;;;;5014446;28;20045;-44
2023/05/16 01:08:11;;;;;;;14.85;11.55;;;11.20;99.90;;;;;;5021365;28;20057;-42
2023/05/16 01:10:58;;;;;;;14.73;12.10;;;11.10;99.90;;;;;;5018488;28;20034;-40
2023/05/16 01:13:43;;;;;;;14.43;12.10;;;11.10;99.90;;;;;;5027376;28;20058;-43
2023/05/16 01:16:21;;;;;;;15.35;11.98;;;11.10;99.90;;;;;;5010877;28;20092;-43
2023/05/16 01:19:10;;;;;;;14.68;11.85;;;11.10;99.90;;;;;;5016069;28;20104;-44
2023/05/16 01:22:03;;;;;;;13.43;11.60;;;11.10;99.90;;;;;;5017541;28;20049;-43
2023/05/16 01:24:59;;;;;;;13.40;11.63;;;11.00;99.90;;;;;;5013127;28;20050;-43
2023/05/16 01:27:28;;;;;;;14.02;11.88;;;11.10;99.90;;;;;;5006030;28;20467;-42
2023/05/16 01:29:57;;;;;;;13.57;12.13;;;11.10;99.90;;;;;;5011881;28;20065;-42
2023/05/16 01:32:24;;;;;;;15.77;11.95;;;11.10;99.90;;;;;;5016002;28;20050;-44
2023/05/16 01:34:52;;;;;;;17.40;12.57;;;11.10;99.90;;;;;;5014182;28;20419;-43
2023/05/16 01:37:31;;;;;;;19.20;13.13;;;11.10;99.90;;;;;;5016724;28;20407;-44
2023/05/16 01:40:11;;;;;;;16.35;13.88;;;11.20;99.90;;;;;;5013964;28;20073;-40
2023/05/16 01:42:43;;;;;;;18.40;13.55;;;11.20;99.90;;;;;;5008663;28;20203;-43
2023/05/16 01:45:22;;;;;;;16.35;13.00;;;11.30;99.90;;;;;;5015117;28;20050;-44
2023/05/16 01:48:07;;;;;;;18.83;13.00;;;11.30;99.90;;;;;;5016049;28;20045;-44
2023/05/16 01:50:46;;;;;;;17.08;12.77;;;11.30;99.90;;;;;;4993777;28;20048;-43
2023/05/16 01:53:24;;;;;;;15.30;12.88;;;11.30;99.90;;;;;;5009473;28;20046;-44
2023/05/16 01:55:55;;;;;;;15.40;12.77;;;11.30;99.90;;;;;;5008099;28;20072;-44
2023/05/16 01:58:26;;;;;;;14.73;12.10;;;11.30;99.90;;;;;;5009967;28;20034;-40
2023/05/16 02:01:04;;;;;;;17.23;13.10;;;11.30;99.90;;;;;;5007219;28;20049;-39
2023/05/16 02:03:32;;;;;;;14.60;12.45;;;11.20;99.90;;;;;;5010122;28;20080;-42
2023/05/16 02:06:00;;;;;;;17.23;12.60;;;11.20;99.90;;;;;;5009355;28;20112;-44
2023/05/16 02:08:28;;;;;;;16.75;12.82;;;11.20;99.90;;;;;;5010333;28;20046;-46
2023/05/16 02:10:55;;;;;;;16.50;12.63;;;11.20;99.90;;;;;;5009763;28;20053;-45
2023/05/16 02:13:22;;;;;;;18.20;12.77;;;11.10;99.90;;;;;;5004398;28;20049;-44
2023/05/16 02:15:51;;;;;;;15.40;12.75;;;11.10;99.90;;;;;;5009902;28;20228;-45
2023/05/16 02:18:19;;;;;;;16.30;12.60;;;11.00;99.90;;;;;;5009173;28;20061;-44
2023/05/16 02:20:46;;;;;;;16.15;13.93;;;11.00;99.90;;;;;;5011810;28;20129;-43
2023/05/16 02:23:15;;;;;;;15.75;13.45;;;10.90;99.90;;;;;;5011193;28;20050;-44
2023/05/16 02:25:42;;;;;;;19.48;14.07;;;10.90;99.90;;;;;;5008790;28;20073;-44
2023/05/16 02:28:10;;;;;;;16.55;13.43;;;10.90;99.90;;;;;;5008255;28;20048;-46
2023/05/16 02:30:37;;;;;;;16.48;12.60;;;10.80;99.90;;;;;;5009041;28;20042;-44
2023/05/16 02:33:05;;;;;;;16.00;13.23;;;10.90;99.90;;;;;;5009761;28;20490;-43
2023/05/16 02:35:32;;;;;;;17.25;13.43;;;10.90;99.90;;;;;;5011322;28;20072;-42
2023/05/16 02:37:59;;;;;;;16.15;13.93;;;10.90;99.90;;;;;;5011859;28;20042;-42
2023/05/16 02:40:27;;;;;;;17.98;13.52;;;10.90;99.90;;;;;;5007325;28;20046;-44
2023/05/16 02:42:55;;;;;;;15.80;13.27;;;10.90;99.90;;;;;;5005284;28;20060;-43
2023/05/16 02:45:22;;;;;;;16.48;13.95;;;10.90;99.90;;;;;;5002145;28;20096;-44
2023/05/16 02:47:50;;;;;;;17.35;14.15;;;10.90;99.90;;;;;;5011571;28;20053;-46
2023/05/16 02:50:18;;;;;;;16.42;12.55;;;10.90;99.90;;;;;;5012397;28;20068;-44
2023/05/16 02:52:46;;;;;;;16.17;14.02;;;11.00;99.90;;;;;;5011580;28;20418;-44
2023/05/16 02:55:13;;;;;;;18.88;14.25;;;10.90;99.90;;;;;;4999168;28;20046;-42
2023/05/16 02:57:43;;;;;;;18.58;14.18;;;10.90;99.90;;;;;;5009233;28;20048;-43
2023/05/16 03:00:13;;;;;;;17.33;13.60;;;10.90;99.90;;;;;;5008122;28;20052;-43
2023/05/16 03:02:42;;;;;;;15.47;12.23;;;10.90;99.90;;;;;;5017161;28;20050;-45
2023/05/16 03:05:11;;;;;;;15.48;12.95;;;10.90;99.90;;;;;;5014950;28;20050;-42
2023/05/16 03:07:39;;;;;;;15.18;13.02;;;10.90;99.90;;;;;;5008450;28;20114;-43
2023/05/16 03:10:07;;;;;;;18.05;13.63;;;10.90;99.90;;;;;;5009602;28;20044;-44
2023/05/16 03:12:34;;;;;;;17.67;14.88;;;10.80;99.90;;;;;;5009646;28;20042;-44
2023/05/16 03:15:03;;;;;;;16.55;13.07;;;10.80;99.90;;;;;;5011007;28;20486;-45
2023/05/16 03:17:30;;;;;;;18.73;14.45;;;10.90;99.90;;;;;;5010214;28;20502;-44
2023/05/16 03:19:58;;;;;;;17.20;13.73;;;10.90;99.90;;;;;;5028854;23;20076;-65
2023/05/16 03:22:25;;;;;;;18.27;13.80;;;10.90;99.90;;;;;;5037178;28;20038;-66
2023/05/16 03:24:52;;;;;;;18.73;14.75;;;10.90;99.90;;;;;;5037262;28;20042;-66
2023/05/16 03:27:19;;;;;;;20.88;15.68;;;10.90;99.90;;;;;;5029768;28;20046;-66
2023/05/16 03:29:49;;;;;;;15.50;13.38;;;11.00;99.90;;;;;;5025314;28;20032;-66
2023/05/16 03:32:16;;;;;;;17.10;14.25;;;11.00;99.90;;;;;;5028103;28;20435;-66
2023/05/16 03:34:44;;;;;;;17.17;13.55;;;11.00;99.90;;;;;;5028146;28;20045;-67
2023/05/16 03:37:13;;;;;;;17.90;13.48;;;11.00;99.90;;;;;;5030146;28;20041;-66
2023/05/16 03:39:40;;;;;;;17.73;13.75;;;11.10;99.90;;;;;;5028413;28;20056;-66
2023/05/16 03:42:08;;;;;;;19.40;14.85;;;11.20;99.90;;;;;;5028315;28;20052;-66
2023/05/16 03:44:36;;;;;;;16.40;12.55;;;11.30;99.90;;;;;;5029011;28;20042;-66
2023/05/16 03:47:03;;;;;;;15.75;13.02;;;11.30;99.90;;;;;;5038100;28;20045;-65
2023/05/16 03:49:31;;;;;;;15.63;12.90;;;11.40;99.90;;;;;;5044270;28;20041;-67
2023/05/16 03:51:58;;;;;;;17.00;13.23;;;11.40;99.90;;;;;;5028395;28;20052;-66
2023/05/16 03:54:25;;;;;;;15.55;13.85;;;11.40;99.90;;;;;;5036917;28;20143;-66
2023/05/16 03:56:53;;;;;;;16.77;14.50;;;11.40;99.90;;;;;;5036986;28;20041;-67
2023/05/16 03:59:20;;;;;;;17.50;14.43;;;11.30;99.90;;;;;;5039277;28;20029;-67
2023/05/16 04:01:49;;;;;;;16.60;13.43;;;11.30;99.90;;;;;;5031270;28;20242;-67
2023/05/16 04:04:16;;;;;;;17.80;13.73;;;11.40;99.90;;;;;;5032558;28;20099;-66
2023/05/16 04:06:43;;;;;;;17.20;14.57;;;11.40;99.90;;;;;;5041847;28;20041;-66
2023/05/16 04:09:11;;;;;;;16.67;14.43;;;11.50;99.90;;;;;;5032313;28;20057;-66
2023/05/16 04:11:38;;;;;;;17.00;14.77;;;11.40;99.90;;;;;;5038749;28;20034;-66
2023/05/16 04:14:06;;;;;;;17.42;14.40;;;11.40;99.90;;;;;;5041523;28;20050;-67
2023/05/16 04:16:33;;;;;;;21.95;15.63;;;11.40;99.90;;;;;;5019012;28;20053;-66
2023/05/16 04:19:02;;;;;;;17.35;14.60;;;11.40;99.90;;;;;;5043284;28;20140;-67
2023/05/16 04:21:30;;;;;;;17.10;14.35;;;11.40;99.90;;;;;;5034655;28;20045;-67
2023/05/16 04:23:58;;;;;;;21.33;15.27;;;11.50;99.90;;;;;;5030922;28;20056;-66
2023/05/16 04:26:26;;;;;;;19.05;15.30;;;11.50;99.90;;;;;;5030952;28;20053;-66
2023/05/16 04:28:53;;;;;;;18.25;14.48;;;11.40;99.90;;;;;;5030851;28;20060;-66
2023/05/16 04:31:21;;;;;;;18.80;15.13;;;11.40;99.90;;;;;;5040404;28;20045;-66
2023/05/16 04:33:49;;;;;;;17.70;14.60;;;11.40;99.90;;;;;;5039867;28;20572;-66
2023/05/16 04:36:16;;;;;;;17.67;15.07;;;11.40;99.90;;;;;;5026975;28;20410;-67
2023/05/16 04:38:45;;;;;;;21.23;15.13;;;11.40;99.90;;;;;;5037540;28;20042;-66
2023/05/16 04:41:13;;;;;;;18.95;15.77;;;11.30;99.90;;;;;;5025828;28;20054;-66
2023/05/16 04:43:40;;;;;;;19.00;14.95;;;11.30;99.90;;;;;;5045423;28;20042;-67
2023/05/16 04:46:08;;;;;;;17.58;15.20;;;11.40;99.90;;;;;;5032545;28;20058;-67
2023/05/16 04:48:36;;;;;;;20.23;15.55;;;11.40;99.90;;;;;;5038620;28;20155;-66
2023/05/16 04:51:03;;;;;;;18.90;15.88;;;11.40;99.90;;;;;;5031980;28;20034;-66
2023/05/16 04:53:31;;;;;;;18.73;15.25;;;11.30;99.90;;;;;;5031189;28;20045;-67
2023/05/16 04:55:59;;;;;;;19.90;14.98;;;11.40;99.90;;;;;;5031814;28;20523;-65
2023/05/16 04:58:26;;;;;;;17.80;15.30;;;11.40;99.90;;;;;;5023831;28;20057;-66
2023/05/16 05:00:54;;;;;;;23.20;15.65;;;11.50;99.90;;;;;;5028421;28;20038;-66
2023/05/16 05:03:22;;;;;;;21.55;15.23;;;11.60;99.90;;;;;;5030298;28;20508;-65
2023/05/16 05:05:49;;;;;;;18.92;14.63;;;11.70;99.90;;;;;;5031226;28;20111;-66
2023/05/16 05:08:17;;;;;;;20.98;14.88;;;11.70;99.90;;;;;;5032134;28;20044;-66
2023/05/16 05:10:45;;;;;;;16.45;14.40;;;11.70;99.90;;;;;;5031903;28;20584;-66
2023/05/16 05:13:13;;;;;;;18.75;14.00;;;11.80;99.90;;;;;;5024891;28;20092;-66
2023/05/16 05:15:40;;;;;;;18.35;13.85;;;11.90;99.90;;;;;;5031636;28;20129;-67
2023/05/16 05:18:07;;;;;;;16.63;13.65;;;12.00;99.90;;;;;;5031036;28;20045;-66
2023/05/16 05:20:35;;;;;;;16.88;14.00;;;12.10;99.90;;;;;;5029754;28;20119;-66
2023/05/16 05:23:02;;;;;;;23.02;14.57;;;12.20;99.90;;;;;;5031059;28;20492;-66
2023/05/16 05:25:29;;;;;;;21.00;14.65;;;12.30;99.90;;;;;;5028845;28;20052;-66
2023/05/16 05:27:57;;;;;;;22.65;15.27;;;12.30;99.90;;;;;;5034839;28;20516;-66
2023/05/16 05:30:24;;;;;;;22.25;14.75;;;12.30;99.90;;;;;;5030413;28;20037;-66
2023/05/16 05:32:53;;;;;;;19.95;13.30;;;12.30;99.90;;;;;;5027816;28;20117;-67
2023/05/16 05:35:20;;;;;;;17.08;13.25;;;12.40;99.90;;;;;;5009559;28;20107;-67
2023/05/16 05:37:48;;;;;;;19.33;14.07;;;12.60;99.90;;;;;;5022551;28;20045;-67
2023/05/16 05:40:15;;;;;;;21.38;13.57;;;12.60;99.90;;;;;;5017405;28;20057;-66
2023/05/16 05:42:43;;;;;;;13.57;12.18;;;12.70;99.90;;;;;;5025195;28;20528;-66
2023/05/16 05:45:14;;;;;;;16.73;13.43;;;12.80;99.90;;;;;;5031238;28;20049;-66
2023/05/16 05:47:42;;;;;;;14.05;12.40;;;12.90;99.90;;;;;;5031023;28;20060;-65
2023/05/16 05:50:10;;;;;;;16.63;13.23;;;12.90;99.90;;;;;;5032811;28;20045;-66
2023/05/16 05:52:38;;;;;;;15.82;12.70;;;13.00;99.90;;;;;;5031472;28;20045;-66
2023/05/16 05:55:05;;;;;;;15.48;13.65;;;12.90;99.90;;;;;;5024568;28;20413;-66
2023/05/16 05:57:32;;;;;;;18.05;13.02;;;13.00;99.90;;;;;;5017956;28;20061;-67
2023/05/16 06:00:00;;;;;;;15.30;12.70;;;12.90;99.90;;;;;;5030684;28;20041;-67
2023/05/16 06:02:34;;;;;;;19.63;12.98;;;13.00;99.90;;;;;;5030315;28;20483;-67
2023/05/16 06:05:02;;;;;;;14.48;12.90;;;13.00;99.90;;;;;;5029153;28;20354;-66
2023/05/16 06:07:30;;;;;;;17.17;13.10;;;13.00;99.90;;;;;;5029891;28;20125;-66
2023/05/16 06:09:57;;;;;;;15.35;13.75;;;13.00;99.90;;;;;;5028222;28;20094;-67
2023/05/16 06:12:24;;;;;;;18.02;14.32;;;13.00;99.90;;;;;;5016449;28;20041;-66
2023/05/16 06:14:52;;;;;;;15.63;13.63;;;13.10;99.90;;;;;;5027826;28;20052;-66
2023/05/16 06:17:19;;;;;;;17.20;13.50;;;13.20;99.90;;;;;;5027276;28;20041;-66
2023/05/16 06:19:46;;;;;;;17.00;13.00;;;13.20;99.90;;;;;;5027585;28;20041;-66
2023/05/16 06:22:14;;;;;;;21.98;17.55;;;13.10;99.90;;;;;;5027412;28;20454;-66
2023/05/16 06:24:41;;;;;;;20.02;15.23;;;13.20;99.90;;;;;;5026536;28;20053;-67
2023/05/16 06:27:09;;;;;;;15.70;12.65;;;13.40;99.90;;;;;;5028992;28;20469;-67
2023/05/16 06:29:36;;;;;;;16.40;13.00;;;13.60;99.90;;;;;;5029137;28;20050;-66
2023/05/16 06:32:04;;;;;;;17.25;13.85;;;13.70;99.90;;;;;;5030682;28;20048;-67
2023/05/16 06:34:31;;;;;;;16.42;13.43;;;13.70;99.90;;;;;;5030750;28;20046;-67
2023/05/16 06:36:59;;;;;;;18.73;13.20;;;13.70;99.90;;;;;;5025007;28;20608;-67
2023/05/16 06:39:26;;;;;;;16.85;13.73;;;13.60;99.90;;;;;;5023800;28;20049;-67
2023/05/16 06:41:54;;;;;;;19.27;13.73;;;13.50;99.90;;;;;;5030226;28;20057;-67
2023/05/16 06:44:23;;;;;;;17.08;13.32;;;13.60;99.90;;;;;;5027664;28;20128;-66
2023/05/16 06:46:50;;;;;;;22.25;13.45;;;13.70;99.90;;;;;;5029827;28;20037;-66
2023/05/16 06:49:17;;;;;;;18.42;14.68;;;13.80;99.90;;;;;;5028955;28;20512;-67
2023/05/16 06:51:45;;;;;;;20.05;13.48;;;13.90;99.90;;;;;;5028642;28;20038;-67
2023/05/16 06:54:12;;;;;;;16.38;12.65;;;13.90;99.90;;;;;;5030599;28;20041;-66
2023/05/16 06:56:40;;;;;;;15.15;11.90;;;14.00;99.90;;;;;;5027123;28;20053;-66
2023/05/16 06:59:07;;;;;;;20.52;13.13;;;14.20;99.90;;;;;;5030262;28;20508;-66
2023/05/16 07:01:34;;;;;;;15.93;11.68;;;14.50;99.90;;;;;;5026212;28;20038;-64
2023/05/16 07:04:02;;;;;;;15.63;11.55;;;14.80;99.90;;;;;;5023919;28;20054;-67
2023/05/16 07:06:30;;;;;;;14.60;12.20;;;14.90;99.90;;;;;;5026337;28;20033;-64
2023/05/16 07:08:57;;;;;;;13.30;10.98;;;15.30;99.90;;;;;;5020599;28;20447;-66
2023/05/16 07:11:24;;;;;;;15.55;12.25;;;15.50;99.90;;;;;;5020009;28;20132;-66
2023/05/16 07:13:52;;;;;;;14.95;12.52;;;15.80;99.90;;;;;;5036731;28;20041;-66
2023/05/16 07:16:19;;;;;;;17.25;11.65;;;15.80;99.90;;;;;;5031155;28;20040;-67
2023/05/16 07:18:46;;;;;;;13.35;11.85;;;16.10;99.90;;;;;;5034789;28;20052;-67
2023/05/16 07:21:14;;;;;;;11.75;9.93;;;15.90;99.90;;;;;;5028781;28;20038;-67
2023/05/16 07:23:41;;;;;;;15.32;11.35;;;15.90;99.90;;;;;;5027729;28;20061;-67
2023/05/16 07:26:08;;;;;;;16.13;11.27;;;16.00;99.90;;;;;;5034133;28;20072;-67
2023/05/16 07:28:36;;;;;;;14.65;11.60;;;16.00;99.90;;;;;;5033741;28;20041;-67
2023/05/16 07:31:03;;;;;;;13.55;11.15;;;15.90;99.90;;;;;;5028945;28;20125;-66
2023/05/16 07:33:31;;;;;;;18.30;11.88;;;16.00;99.90;;;;;;5026414;28;20068;-67
2023/05/16 07:35:58;;;;;;;18.23;13.18;;;16.20;99.90;;;;;;5028114;28;20057;-64
2023/05/16 07:38:42;;;;;;;14.32;11.00;;;16.30;99.90;;;;;;5019722;28;20412;-67
2023/05/16 07:41:09;;;;;;;19.73;11.48;;;16.30;99.90;;;;;;5025881;28;20112;-66
2023/05/16 07:43:37;;;;;;;13.38;10.68;;;15.80;99.90;;;;;;5031521;28;20128;-66
2023/05/16 07:46:05;;;;;;;14.43;11.43;;;16.00;99.90;;;;;;5049318;28;20474;-66
2023/05/16 07:48:33;;;;;;;14.63;11.77;;;16.00;99.90;;;;;;5048925;28;20042;-65
2023/05/16 07:51:01;;;;;;;16.00;11.63;;;16.20;99.90;;;;;;5032792;28;20046;-67
2023/05/16 07:53:29;;;;;;;13.93;12.10;;;16.20;99.90;;;;;;5032332;28;20161;-66
2023/05/16 07:55:59;;;;;;;13.98;12.40;;;16.40;99.90;;;;;;5045036;28;20424;-67
2023/05/16 07:58:26;;;;;;;15.60;11.10;;;16.10;99.90;;;;;;5037272;28;20501;-67
2023/05/16 08:00:54;;;;;;;14.50;11.43;;;16.00;99.90;;;;;;5039936;28;20073;-67
2023/05/16 08:03:21;;;;;;;13.48;11.73;;;15.80;99.90;;;;;;5035327;28;20049;-65
2023/05/16 08:05:52;;;;;;;13.20;11.48;;;15.50;99.90;;;;;;5042424;28;20073;-66
2023/05/16 08:08:19;;;;;;;13.77;11.38;;;15.80;99.90;;;;;;5028102;28;20103;-66
2023/05/16 08:10:47;;;;;;;14.95;11.35;;;16.10;99.90;;;;;;5029136;28;20133;-66
2023/05/16 08:13:14;;;;;;;14.50;10.77;;;16.30;99.90;;;;;;5030422;28;20179;-67
2023/05/16 08:15:42;;;;;;;15.43;10.77;;;16.30;99.90;;;;;;5026470;28;20042;-66
2023/05/16 08:18:14;;;;;;;13.40;10.68;;;16.40;99.90;;;;;;5032137;28;20124;-68
2023/05/16 08:20:41;;;;;;;13.73;10.57;;;16.50;99.90;;;;;;5032151;28;20121;-66
2023/05/16 08:23:09;;;;;;;15.48;10.93;;;16.50;99.90;;;;;;5033617;28;20157;-67
2023/05/16 08:25:36;;;;;;;15.07;10.80;;;16.40;99.90;;;;;;5032593;28;20069;-65
2023/05/16 08:28:04;;;;;;;13.50;10.75;;;16.40;99.90;;;;;;5030440;28;20045;-66
2023/05/16 08:30:31;;;;;;;13.73;9.02;;;16.50;99.90;;;;;;5031724;28;20120;-66
2023/05/16 08:32:58;;;;;;;11.75;7.97;;;16.30;99.90;;;;;;5032491;28;20050;-65
2023/05/16 08:35:26;;;;;;;11.02;9.38;;;16.50;99.90;;;;;;5024201;28;20164;-65
2023/05/16 08:37:54;;;;;;;10.15;9.15;;;16.40;99.90;;;;;;5039090;28;20434;-66
2023/05/16 08:40:24;;;;;;;11.10;8.68;;;16.50;99.90;;;;;;5031372;28;20068;-66
2023/05/16 08:42:53;;;;;;;13.45;8.95;;;16.80;99.90;;;;;;5033297;28;20037;-66
2023/05/16 08:45:22;;;;;;;11.95;9.40;;;17.00;99.90;;;;;;5032327;28;20483;-65
2023/05/16 08:47:52;;;;;;;16.35;9.30;;;17.20;99.90;;;;;;5034252;28;20132;-65
2023/05/16 08:50:20;;;;;;;15.27;9.52;;;17.30;99.90;;;;;;5035905;28;20048;-65
2023/05/16 08:52:50;;;;;;;13.35;10.10;;;17.60;99.90;;;;;;5031685;28;20034;-66
2023/05/16 08:55:21;;;;;;;13.57;12.18;;;17.70;99.90;;;;;;5030521;28;20053;-65
2023/05/16 08:57:50;;;;;;;13.90;10.65;;;17.90;99.90;;;;;;5026368;28;20125;-66
2023/05/16 09:00:18;;;;;;;14.43;10.10;;;17.70;99.90;;;;;;5030734;28;20125;-65
2023/05/16 09:02:45;;;;;;;11.25;10.05;;;18.00;99.90;;;;;;5037803;28;20602;-65
2023/05/16 09:05:15;;;;;;;14.00;10.75;;;18.20;99.90;;;;;;5031788;28;20050;-65
2023/05/16 09:07:43;;;;;;;13.20;11.05;;;18.00;99.90;;;;;;5041521;28;20140;-65
2023/05/16 09:10:11;;;;;;;13.88;10.00;;;18.20;99.90;;;;;;5030919;28;20049;-66
2023/05/16 09:12:40;;;;;;;12.80;11.50;;;18.60;99.90;;;;;;5034727;28;20140;-63
2023/05/16 09:15:10;;;;;;;15.63;12.32;;;18.40;99.90;;;;;;5005701;28;20398;-65
2023/05/16 09:17:39;;;;;;;14.77;12.05;;;18.10;99.90;;;;;;5024365;28;20045;-66
2023/05/16 09:20:17;;;;;;;13.85;11.65;;;18.00;99.90;;;;;;5031290;28;20052;-66
2023/05/16 09:22:58;;;;;;;14.55;11.50;;;17.80;99.90;;;;;;5033957;28;20061;-66
2023/05/16 09:25:27;;;;;;;13.63;11.88;;;17.70;99.90;;;;;;5027087;28;20041;-67
2023/05/16 09:28:00;;;;;;;16.27;13.57;;;17.30;99.90;;;;;;5033965;28;20424;-67
2023/05/16 09:30:31;;;;;;;16.38;13.90;;;16.60;99.90;;;;;;5040026;28;20521;-67
2023/05/16 09:32:58;;;;;;;20.65;14.90;;;16.70;99.90;;;;;;5030572;28;20128;-66
2023/05/16 09:35:26;;;;;;;17.17;14.93;;;16.50;99.90;;;;;;5031156;28;20060;-66
2023/05/16 09:37:56;;;;;;;16.23;13.88;;;16.60;99.90;;;;;;5037289;28;20049;-66
2023/05/16 09:40:24;;;;;;;16.25;13.55;;;16.70;99.90;;;;;;5030920;28;20437;-67
2023/05/16 09:43:03;;;;;;;15.80;13.65;;;16.70;99.90;;;;;;5030302;28;20506;-64
2023/05/16 09:45:31;;;;;;;15.18;13.57;;;16.70;99.90;;;;;;5031586;28;20500;-67
2023/05/16 09:48:07;;;;;;;16.40;13.07;;;16.70;99.90;;;;;;5033329;28;20098;-64
2023/05/16 09:50:36;;;;;;;17.83;14.25;;;16.70;99.90;;;;;;5030477;28;20134;-66
2023/05/16 09:53:04;;;;;;;16.42;13.85;;;16.80;99.90;;;;;;5028506;28;20038;-66
2023/05/16 09:55:32;;;;;;;15.70;13.25;;;16.90;99.90;;;;;;5029053;28;20144;-67
2023/05/16 09:58:00;;;;;;;17.77;13.82;;;16.80;99.90;;;;;;5024873;28;20046;-67
2023/05/16 10:00:32;;;;;;;13.75;12.35;;;17.20;99.90;;;;;;5032331;28;20045;-66
2023/05/16 10:03:02;;;;;;;18.05;13.60;;;17.20;99.90;;;;;;5021828;28;20050;-66
2023/05/16 10:05:32;;;;;;;16.95;11.70;;;17.50;99.90;;;;;;5029508;28;20041;-67
2023/05/16 10:08:02;;;;;;;12.45;10.50;;;17.30;99.90;;;;;;5039120;28;20126;-66
2023/05/16 10:10:32;;;;;;;13.07;10.98;;;17.30;99.90;;;;;;5037896;28;20053;-67
2023/05/16 10:13:04;;;;;;;13.43;11.18;;;17.50;99.90;;;;;;5028560;28;20042;-67
2023/05/16 10:15:33;;;;;;;12.13;10.75;;;17.50;99.90;;;;;;5030441;28;20044;-66
2023/05/16 10:18:03;;;;;;;13.73;11.68;;;17.90;99.90;;;;;;5037277;28;20159;-64
2023/05/16 10:20:31;;;;;;;14.05;10.27;;;18.10;99.90;;;;;;5029048;28;20048;-66
2023/05/16 10:22:58;;;;;;;11.25;10.05;;;18.30;99.90;;;;;;5031053;28;20045;-64
2023/05/16 10:25:35;;;;;;;11.60;10.40;;;18.70;99.90;;;;;;5033495;28;20049;-65
2023/05/16 10:28:03;;;;;;;12.32;11.05;;;18.80;99.90;;;;;;5030351;28;20053;-67
2023/05/16 10:30:33;;;;;;;11.80;10.25;;;18.90;99.90;;;;;;5031253;28;20041;-67
2023/05/16 10:33:03;;;;;;;13.68;10.80;;;19.10;99.90;;;;;;5029902;28;20045;-66
2023/05/16 10:35:33;;;;;;;11.63;10.20;;;19.20;99.90;;;;;;5031339;28;20049;-66
2023/05/16 10:38:01;;;;;;;12.52;9.98;;;19.10;99.90;;;;;;5025885;28;20529;-65
2023/05/16 10:40:31;;;;;;;11.15;10.05;;;19.40;99.90;;;;;;5020757;28;20073;-65
2023/05/16 10:43:00;;;;;;;10.98;9.88;;;19.30;99.90;;;;;;5028218;28;20049;-66
2023/05/16 10:45:29;;;;;;;10.93;9.77;;;19.00;99.90;;;;;;5014105;28;20081;-67
2023/05/16 10:48:05;;;;;;;13.07;10.38;;;19.10;99.90;;;;;;5014706;28;20045;-67
2023/05/16 10:50:44;;;;;;;12.20;9.30;;;19.00;99.90;;;;;;5018766;28;20590;-66
2023/05/16 10:53:32;;;;;;;11.38;8.77;;;18.80;99.90;;;;;;5024432;28;20138;-67
2023/05/16 10:56:00;;;;;;;9.45;7.90;;;19.00;99.90;;;;;;5029978;28;20104;-66
2023/05/16 10:58:37;;;;;;;10.20;8.02;;;19.40;99.90;;;;;;5028698;28;20042;-67
2023/05/16 11:01:23;;;;;;;9.77;8.23;;;19.30;99.90;;;;;;5026571;28;20042;-67
2023/05/16 11:04:03;;;;;;;8.65;7.57;;;19.70;99.90;;;;;;5024110;28;20121;-66
2023/05/16 11:06:41;;;;;;;12.02;9.00;;;19.60;99.90;;;;;;5028233;28;20041;-67
2023/05/16 11:09:14;;;;;;;10.40;8.30;;;19.90;99.90;;;;;;5034920;28;20060;-67
2023/05/16 11:11:45;;;;;;;10.63;9.02;;;20.30;99.90;;;;;;5031187;28;20397;-67
2023/05/16 11:14:25;;;;;;;11.50;8.60;;;20.60;99.90;;;;;;5011355;28;20071;-67
2023/05/16 11:16:59;;;;;;;11.55;9.45;;;20.60;99.90;;;;;;5021886;28;20057;-67
2023/05/16 11:19:30;;;;;;;10.10;8.75;;;20.50;99.90;;;;;;5024459;28;20099;-67
2023/05/16 11:22:18;;;;;;;10.48;8.50;;;20.60;99.90;;;;;;5025851;28;20095;-67
2023/05/16 11:25:03;;;;;;;10.90;8.32;;;20.30;99.90;;;;;;5028324;28;20041;-66
2023/05/16 11:27:46;;;;;;;12.20;8.20;;;19.90;99.90;;;;;;5031288;28;20072;-67
2023/05/16 11:30:20;;;;;;;10.50;8.07;;;20.00;99.90;;;;;;5029451;28;20532;-67
2023/05/16 11:32:49;;;;;;;10.05;7.63;;;20.10;99.90;;;;;;5029016;28;20041;-67
2023/05/16 11:35:17;;;;;;;11.05;8.57;;;20.00;99.90;;;;;;5029069;28;20071;-67
2023/05/16 11:37:46;;;;;;;8.90;7.93;;;20.30;99.90;;;;;;5028406;28;20513;-67
2023/05/16 11:40:15;;;;;;;10.10;7.40;;;20.10;99.90;;;;;;5028142;28;20037;-67
2023/05/16 11:42:47;;;;;;;10.38;7.63;;;19.80;99.90;;;;;;5029831;28;20061;-67
2023/05/16 11:45:16;;;;;;;8.68;7.28;;;19.50;99.90;;;;;;5044472;28;20056;-67
2023/05/16 11:47:46;;;;;;;8.27;7.35;;;19.80;99.90;;;;;;5029379;28;20115;-67
2023/05/16 11:50:20;;;;;;;8.73;7.13;;;19.60;99.90;;;;;;5029930;28;20049;-66
2023/05/16 11:52:52;;;;;;;8.95;8.05;;;19.90;99.90;;;;;;5027886;28;20060;-67
2023/05/16 11:55:26;;;;;;;9.25;6.70;;;20.50;99.90;;;;;;5032391;28;20041;-68
2023/05/16 11:58:09;;;;;;;9.48;7.18;;;20.90;99.90;;;;;;5026670;28;20115;-66
2023/05/16 12:00:46;;;;;;;8.05;6.70;;;21.60;99.90;;;;;;5024383;28;20124;-66
2023/05/16 12:03:13;;;;;;;9.68;6.80;;;21.30;99.90;;;;;;5020891;28;20045;-67
2023/05/16 12:05:58;;;;;;;7.60;6.70;;;22.00;99.90;;;;;;5038213;28;20152;-67
2023/05/16 12:08:25;;;;;;;7.57;6.78;;;22.20;99.90;;;;;;5029138;28;20056;-67
2023/05/16 12:10:53;;;;;;;7.93;6.47;;;22.40;99.90;;;;;;5028724;28;20443;-67
2023/05/16 12:13:22;;;;;;;11.40;7.85;;;22.90;99.90;;;;;;5040262;28;20588;-67
2023/05/16 12:15:51;;;;;;;8.07;6.78;;;22.90;99.90;;;;;;5028666;28;20061;-67
2023/05/16 12:18:20;;;;;;;8.70;7.05;;;22.90;99.90;;;;;;5035350;28;20045;-67
2023/05/16 12:20:48;;;;;;;8.35;7.20;;;23.60;99.90;;;;;;5027878;28;20067;-66
2023/05/16 12:23:15;;;;;;;8.55;7.10;;;23.90;99.90;;;;;;5028467;28;20132;-66
2023/05/16 12:25:48;;;;;;;7.70;6.78;;;24.20;99.90;;;;;;5028852;28;20132;-65
2023/05/16 12:28:15;;;;;;;7.80;6.45;;;23.70;99.90;;;;;;5030503;28;20049;-68
2023/05/16 12:30:46;;;;;;;7.60;6.78;;;23.70;99.90;;;;;;5030454;28;20057;-66
2023/05/16 12:33:15;;;;;;;8.52;7.18;;;24.50;99.90;;;;;;5034227;28;20132;-66
2023/05/16 12:35:45;;;;;;;8.77;7.88;;;24.30;99.90;;;;;;5031255;28;20159;-67
2023/05/16 12:38:14;;;;;;;8.18;7.38;;;23.80;99.90;;;;;;5038682;28;20505;-67
2023/05/16 12:40:43;;;;;;;9.02;7.38;;;23.30;99.90;;;;;;5038105;28;20096;-67
2023/05/16 12:43:19;;;;;;;9.18;7.85;;;23.10;99.90;;;;;;5023215;28;20050;-67